Time;durP1;ratioP1;P1;durP2;ratioP2;P2;SDS_P1;SDS_P2;PMS_P1;PMS_P2;Temp;Humidity;BMP_temperature;BMP_pressure;BME280_temperature;BME280_humidity;BME280_pressure;Samples;Min_cycle;Max_cycle;Signal;HPM_P1;HPM_P2
2023/10/23 00:01:40;;;;;;;10.20;1.65;;;25.00;51.30;;;;;;5065193;28;20071;-69
2023/10/23 00:04:06;;;;;;;;;;;24.90;51.40;;;;;;5071098;28;20033;-70
2023/10/23 00:06:33;;;;;;;2.58;1.52;;;25.00;51.40;;;;;;5062207;28;19909;-71
2023/10/23 00:08:59;;;;;;;4.00;1.33;;;25.00;51.50;;;;;;5063123;28;20038;-70
2023/10/23 00:11:27;;;;;;;5.57;1.50;;;24.90;51.60;;;;;;5072602;28;20068;-70
2023/10/23 00:13:53;;;;;;;1.90;1.52;;;25.00;51.60;;;;;;5069625;28;20032;-70
2023/10/23 00:16:20;;;;;;;2.47;1.73;;;25.00;51.60;;;;;;5072616;28;20132;-70
2023/10/23 00:18:46;;;;;;;7.72;1.67;;;25.00;51.70;;;;;;5069189;28;20059;-70
2023/10/23 00:21:13;;;;;;;4.63;1.42;;;25.00;51.70;;;;;;5072699;28;20025;-70
2023/10/23 00:23:39;;;;;;;3.58;1.33;;;25.00;51.70;;;;;;5048552;28;20401;-70
2023/10/23 00:26:05;;;;;;;3.88;1.23;;;25.00;51.70;;;;;;5087064;28;20074;-70
2023/10/23 00:28:32;;;;;;;4.00;1.45;;;25.00;51.70;;;;;;5093537;28;20111;-72
2023/10/23 00:30:58;;;;;;;2.65;1.50;;;25.10;51.70;;;;;;5069890;28;20040;-70
2023/10/23 00:33:26;;;;;;;2.05;1.52;;;25.00;51.80;;;;;;5053338;28;20048;-70
2023/10/23 00:35:53;;;;;;;7.43;2.05;;;25.00;51.70;;;;;;5069568;28;20041;-70
2023/10/23 00:38:19;;;;;;;4.57;1.77;;;25.00;51.70;;;;;;5071027;28;20526;-70
2023/10/23 00:40:46;;;;;;;6.28;1.52;;;25.00;51.70;;;;;;5073000;28;20139;-70
2023/10/23 00:43:23;;;;;;;3.63;1.15;;;25.10;51.70;;;;;;5077476;28;20402;-70
2023/10/23 00:45:53;;;;;;;4.38;1.50;;;25.00;51.70;;;;;;5071843;28;20498;-70
2023/10/23 00:48:21;;;;;;;9.02;2.20;;;25.00;51.80;;;;;;5068592;28;20115;-70
2023/10/23 00:50:51;;;;;;;7.70;1.10;;;24.90;51.80;;;;;;5069533;28;20056;-70
2023/10/23 00:53:25;;;;;;;6.45;1.33;;;25.00;51.80;;;;;;5059789;28;20051;-70
2023/10/23 00:55:53;;;;;;;4.07;1.00;;;24.90;51.80;;;;;;5056242;28;20040;-72
2023/10/23 00:58:20;;;;;;;4.40;1.40;;;25.00;51.80;;;;;;5031616;28;20154;-70
2023/10/23 01:00:48;;;;;;;4.10;1.30;;;25.00;51.80;;;;;;5032065;28;20052;-70
2023/10/23 01:03:14;;;;;;;1.70;1.30;;;25.00;51.90;;;;;;5052972;28;20554;-70
2023/10/23 01:05:40;;;;;;;2.92;1.45;;;24.80;52.00;;;;;;5069196;28;20052;-70
2023/10/23 01:08:06;;;;;;;3.45;1.58;;;24.90;52.10;;;;;;5046507;28;20043;-70
2023/10/23 01:10:33;;;;;;;3.75;1.95;;;24.90;52.20;;;;;;5050855;28;20020;-70
2023/10/23 01:12:59;;;;;;;3.75;1.50;;;24.80;52.00;;;;;;5052698;28;20184;-70
2023/10/23 01:15:26;;;;;;;2.80;1.02;;;24.90;52.20;;;;;;5068337;28;20998;-70
2023/10/23 01:17:52;;;;;;;4.72;1.35;;;25.00;52.10;;;;;;5050646;28;20404;-70
2023/10/23 01:20:18;;;;;;;3.80;1.65;;;25.00;52.00;;;;;;5032362;28;20041;-70
2023/10/23 01:22:45;;;;;;;2.15;1.35;;;24.90;52.10;;;;;;5049246;28;20051;-70
2023/10/23 01:25:14;;;;;;;3.40;1.67;;;25.00;52.10;;;;;;5015717;28;20049;-70
2023/10/23 01:27:41;;;;;;;5.00;1.90;;;25.00;52.10;;;;;;5051465;28;20091;-70
2023/10/23 01:30:11;;;;;;;3.05;1.60;;;24.90;52.10;;;;;;5066614;28;20109;-70
2023/10/23 01:32:37;;;;;;;4.97;1.95;;;25.00;52.10;;;;;;5091484;28;20035;-70
2023/10/23 01:35:03;;;;;;;9.05;2.10;;;24.90;52.10;;;;;;5073275;28;20028;-70
2023/10/23 01:37:30;;;;;;;5.07;1.60;;;25.00;52.10;;;;;;5096497;28;20063;-70
2023/10/23 01:39:55;;;;;;;3.92;1.75;;;24.90;52.10;;;;;;5107113;28;20067;-70
2023/10/23 01:42:21;;;;;;;3.63;1.77;;;24.90;52.10;;;;;;5102543;28;20028;-70
2023/10/23 01:44:47;;;;;;;4.00;1.92;;;24.80;52.00;;;;;;5057018;28;20036;-70
2023/10/23 01:47:14;;;;;;;4.82;1.70;;;24.90;52.20;;;;;;5088107;28;20070;-70
2023/10/23 01:49:40;;;;;;;3.42;1.40;;;24.80;52.10;;;;;;5078788;28;20039;-70
2023/10/23 01:52:06;;;;;;;7.15;1.60;;;25.00;52.10;;;;;;5056995;28;20032;-70
2023/10/23 01:54:32;;;;;;;4.95;1.55;;;24.80;52.10;;;;;;5052827;28;20055;-70
2023/10/23 01:56:58;;;;;;;1.58;1.48;;;24.80;52.10;;;;;;5085314;28;20046;-70
2023/10/23 01:59:24;;;;;;;4.43;1.08;;;24.90;52.10;;;;;;5064283;28;20036;-70
2023/10/23 02:01:50;;;;;;;4.05;1.50;;;24.80;52.10;;;;;;5072787;28;20119;-70
2023/10/23 02:04:16;;;;;;;2.10;1.30;;;24.80;52.20;;;;;;5075698;28;20123;-69
2023/10/23 02:06:42;;;;;;;4.22;1.77;;;24.80;52.20;;;;;;5092066;28;20043;-70
2023/10/23 02:09:08;;;;;;;6.50;1.50;;;24.80;52.20;;;;;;5079246;28;20063;-70
2023/10/23 02:11:34;;;;;;;3.17;1.48;;;24.90;52.30;;;;;;5091775;28;20024;-70
2023/10/23 02:14:01;;;;;;;6.28;1.80;;;25.00;52.30;;;;;;5091279;28;20486;-70
2023/10/23 02:16:27;;;;;;;5.13;1.45;;;24.90;52.30;;;;;;5072780;28;20177;-70
2023/10/23 02:18:53;;;;;;;3.63;1.38;;;24.80;52.30;;;;;;5058813;28;20036;-70
2023/10/23 02:21:19;;;;;;;2.58;1.40;;;24.80;52.30;;;;;;5091578;28;20059;-70
2023/10/23 02:23:45;;;;;;;5.43;1.65;;;24.90;52.40;;;;;;5075943;28;20040;-70
2023/10/23 02:26:11;;;;;;;4.65;1.65;;;25.00;52.30;;;;;;5085746;28;20056;-70
2023/10/23 02:28:37;;;;;;;8.18;1.77;;;24.90;52.40;;;;;;5112867;28;20032;-69
2023/10/23 02:31:03;;;;;;;5.93;1.67;;;24.90;52.30;;;;;;5114915;28;20035;-70
2023/10/23 02:33:30;;;;;;;1.95;1.48;;;25.00;52.30;;;;;;5114740;28;20032;-69
2023/10/23 02:35:56;;;;;;;5.00;1.80;;;24.80;52.20;;;;;;5114134;28;20534;-70
2023/10/23 02:38:23;;;;;;;5.85;1.40;;;25.00;52.30;;;;;;5090157;28;20035;-70
2023/10/23 02:40:53;;;;;;;1.80;1.17;;;24.80;52.20;;;;;;5096393;28;20031;-70
2023/10/23 02:43:19;;;;;;;3.72;1.17;;;25.00;52.30;;;;;;5114340;28;20043;-70
2023/10/23 02:45:46;;;;;;;1.60;1.08;;;24.90;52.30;;;;;;5095038;28;20046;-70
2023/10/23 02:48:18;;;;;;;1.70;0.80;;;24.80;52.20;;;;;;5113892;28;20031;-70
2023/10/23 02:50:58;;;;;;;0.90;0.90;;;24.70;52.20;;;;;;5076361;28;20039;-70
2023/10/23 02:53:25;;;;;;;3.75;1.10;;;24.70;52.20;;;;;;5111495;28;20036;-70
2023/10/23 02:55:51;;;;;;;4.15;0.90;;;24.70;52.30;;;;;;5063100;28;20383;-69
2023/10/23 02:58:18;;;;;;;3.50;1.10;;;24.80;52.40;;;;;;5094973;28;20035;-70
2023/10/23 03:00:44;;;;;;;5.20;0.95;;;24.70;52.40;;;;;;5105044;28;20090;-70
2023/10/23 03:03:11;;;;;;;1.60;1.10;;;24.80;52.40;;;;;;5075904;28;20035;-69
2023/10/23 03:05:37;;;;;;;3.92;1.27;;;24.70;52.50;;;;;;5075588;28;20036;-70
2023/10/23 03:08:05;;;;;;;4.40;1.02;;;24.90;52.50;;;;;;5094453;28;20050;-70
2023/10/23 03:10:32;;;;;;;3.20;1.17;;;24.80;52.50;;;;;;5094681;28;20043;-70
2023/10/23 03:12:58;;;;;;;4.57;1.30;;;24.90;52.50;;;;;;5051146;28;20053;-70
2023/10/23 03:15:24;;;;;;;4.32;1.30;;;24.90;52.50;;;;;;5051494;28;20041;-70
2023/10/23 03:17:53;;;;;;;0.95;0.80;;;24.80;52.40;;;;;;5034574;28;20171;-70
2023/10/23 03:20:19;;;;;;;3.05;1.20;;;24.80;52.50;;;;;;5051680;28;20411;-70
2023/10/23 03:22:45;;;;;;;4.13;0.90;;;24.90;52.50;;;;;;5029633;28;20060;-69
2023/10/23 03:25:11;;;;;;;2.67;1.27;;;24.80;52.40;;;;;;5054105;28;20052;-70
2023/10/23 03:27:37;;;;;;;3.28;1.45;;;24.70;52.40;;;;;;5037867;28;20462;-70
2023/10/23 03:30:04;;;;;;;4.07;1.88;;;24.80;52.40;;;;;;5004483;28;20044;-70
2023/10/23 03:32:30;;;;;;;4.43;2.50;;;24.80;52.40;;;;;;5050899;28;20092;-70
2023/10/23 03:35:00;;;;;;;5.38;2.47;;;24.90;52.50;;;;;;5051122;28;20452;-68
2023/10/23 03:37:26;;;;;;;7.00;1.95;;;24.70;52.40;;;;;;5034062;28;20046;-70
2023/10/23 03:39:52;;;;;;;4.65;1.80;;;24.90;52.50;;;;;;5048611;28;20037;-70
2023/10/23 03:42:18;;;;;;;4.00;2.20;;;24.70;52.40;;;;;;5026204;28;20720;-70
2023/10/23 03:44:44;;;;;;;4.97;1.80;;;24.70;52.50;;;;;;5067039;28;20036;-70
2023/10/23 03:47:10;;;;;;;3.35;1.77;;;24.70;52.50;;;;;;5084825;28;20438;-70
2023/10/23 03:49:36;;;;;;;6.05;1.48;;;24.70;52.50;;;;;;5073435;28;20044;-70
2023/10/23 03:52:02;;;;;;;2.30;1.25;;;24.70;52.60;;;;;;5072107;28;20060;-70
2023/10/23 03:54:28;;;;;;;5.07;1.58;;;24.70;52.60;;;;;;5073884;28;20039;-70
2023/10/23 03:56:54;;;;;;;2.88;0.98;;;24.70;52.60;;;;;;5090830;28;20155;-70
2023/10/23 03:59:20;;;;;;;5.32;1.10;;;24.80;52.70;;;;;;5085123;28;20122;-70
2023/10/23 04:01:46;;;;;;;2.13;0.95;;;24.80;52.70;;;;;;5085337;28;20071;-70
2023/10/23 04:04:13;;;;;;;1.27;0.93;;;24.70;52.70;;;;;;5078098;28;20040;-69
2023/10/23 04:06:39;;;;;;;3.30;1.20;;;24.70;52.70;;;;;;5089433;28;20036;-70
2023/10/23 04:09:06;;;;;;;6.75;1.27;;;24.70;52.70;;;;;;5075276;28;20046;-70
2023/10/23 04:11:32;;;;;;;1.92;1.17;;;24.80;52.70;;;;;;5092943;28;20105;-70
2023/10/23 04:13:58;;;;;;;1.33;1.00;;;24.90;52.80;;;;;;5093297;28;20471;-70
2023/10/23 04:16:24;;;;;;;2.30;1.10;;;24.70;52.70;;;;;;5092771;28;20063;-71
2023/10/23 04:18:50;;;;;;;1.02;0.82;;;24.80;52.60;;;;;;5075966;28;20497;-70
2023/10/23 04:21:17;;;;;;;3.38;1.00;;;24.80;52.60;;;;;;5077632;28;20028;-70
2023/10/23 04:23:43;;;;;;;1.48;0.95;;;24.80;52.60;;;;;;5079605;28;20063;-70
2023/10/23 04:26:09;;;;;;;2.15;1.40;;;24.80;52.60;;;;;;5057912;28;20076;-70
2023/10/23 04:28:36;;;;;;;1.70;0.95;;;24.70;52.60;;;;;;5087016;28;20095;-69
2023/10/23 04:31:05;;;;;;;3.58;1.60;;;24.80;52.60;;;;;;5104215;28;20043;-70
2023/10/23 04:33:32;;;;;;;4.78;1.70;;;24.60;52.60;;;;;;5074709;28;20040;-70
2023/10/23 04:35:59;;;;;;;3.25;1.35;;;24.70;52.60;;;;;;5105771;28;20036;-70
2023/10/23 04:38:25;;;;;;;4.45;1.30;;;24.70;52.60;;;;;;5106777;28;20399;-70
2023/10/23 04:40:53;;;;;;;5.38;1.48;;;24.70;52.60;;;;;;5108509;28;20036;-69
2023/10/23 04:43:20;;;;;;;4.50;1.23;;;24.80;52.70;;;;;;5110368;28;20031;-68
2023/10/23 04:45:46;;;;;;;0.93;0.75;;;24.60;52.40;;;;;;5037276;28;20068;-68
2023/10/23 04:48:12;;;;;;;0.75;0.60;;;24.50;51.40;;;;;;5030358;28;20041;-69
2023/10/23 04:50:39;;;;;;;2.15;0.90;;;24.70;51.40;;;;;;5038066;28;20425;-68
2023/10/23 04:53:06;;;;;;;1.13;0.82;;;24.70;51.10;;;;;;5030453;28;20500;-68
2023/10/23 04:55:38;;;;;;;1.00;0.85;;;24.70;50.80;;;;;;4996535;28;20401;-68
2023/10/23 04:58:05;;;;;;;1.38;1.00;;;24.80;51.20;;;;;;5005211;28;20072;-69
2023/10/23 05:00:37;;;;;;;1.73;1.50;;;24.80;51.90;;;;;;5039632;28;20075;-68
2023/10/23 05:03:04;;;;;;;2.35;2.15;;;24.90;52.80;;;;;;5035487;28;20081;-68
2023/10/23 05:05:31;;;;;;;5.22;3.22;;;25.00;53.40;;;;;;5049552;28;20484;-70
2023/10/23 05:07:57;;;;;;;6.85;4.30;;;25.00;54.40;;;;;;5040535;28;20049;-71
2023/10/23 05:10:23;;;;;;;11.55;8.75;;;25.00;53.70;;;;;;4990317;28;20605;-71
2023/10/23 05:12:49;;;;;;;19.52;13.77;;;25.00;53.10;;;;;;4990324;28;20054;-72
2023/10/23 05:15:17;;;;;;;4.85;3.15;;;25.20;54.60;;;;;;4957730;28;20133;-71
2023/10/23 05:17:43;;;;;;;13.55;2.78;;;25.20;53.60;;;;;;4990194;28;20086;-72
2023/10/23 05:20:10;;;;;;;6.97;2.33;;;25.20;53.90;;;;;;5002881;28;20057;-72
2023/10/23 05:22:36;;;;;;;8.95;2.28;;;25.20;53.40;;;;;;5019323;28;20036;-72
2023/10/23 05:25:02;;;;;;;6.50;2.20;;;25.30;53.00;;;;;;5067351;28;20055;-74
2023/10/23 05:27:29;;;;;;;5.32;2.22;;;25.20;52.80;;;;;;5052366;28;20455;-70
2023/10/23 05:29:55;;;;;;;14.68;2.50;;;25.20;52.60;;;;;;5061420;28;20041;-73
2023/10/23 05:32:21;;;;;;;6.90;2.67;;;25.20;52.80;;;;;;5016131;28;20148;-72
2023/10/23 05:34:47;;;;;;;9.77;2.40;;;25.30;53.20;;;;;;5048387;28;20167;-71
2023/10/23 05:37:13;;;;;;;9.00;2.58;;;25.30;53.50;;;;;;5043132;28;20037;-72
2023/10/23 05:39:39;;;;;;;11.25;2.53;;;25.10;53.60;;;;;;5056827;28;20136;-73
2023/10/23 05:42:05;;;;;;;10.73;2.25;;;25.20;53.60;;;;;;5087967;28;20032;-74
2023/10/23 05:44:31;;;;;;;4.90;2.17;;;25.20;53.90;;;;;;5081568;28;20031;-73
2023/10/23 05:46:57;;;;;;;4.60;1.98;;;25.30;54.10;;;;;;5094579;28;20028;-71
2023/10/23 05:49:23;;;;;;;9.05;2.38;;;25.10;54.40;;;;;;5099139;28;20027;-71
2023/10/23 05:51:49;;;;;;;6.63;2.30;;;25.20;54.50;;;;;;5093960;28;20399;-72
2023/10/23 05:54:16;;;;;;;8.05;2.53;;;25.10;54.90;;;;;;5084521;28;20390;-72
2023/10/23 05:56:46;;;;;;;3.13;1.58;;;25.10;55.00;;;;;;5094216;28;20437;-72
2023/10/23 05:59:11;;;;;;;6.78;1.80;;;25.00;54.40;;;;;;5109348;28;20031;-72
2023/10/23 06:01:37;;;;;;;5.85;2.35;;;25.10;53.90;;;;;;5107704;28;20117;-72
2023/10/23 06:04:04;;;;;;;7.18;2.13;;;25.10;53.70;;;;;;5094070;28;20472;-71
2023/10/23 06:06:30;;;;;;;4.65;2.10;;;25.10;52.80;;;;;;5106784;28;20108;-70
2023/10/23 06:08:56;;;;;;;4.25;1.98;;;25.00;53.40;;;;;;5113555;28;20043;-72
2023/10/23 06:11:25;;;;;;;4.95;2.10;;;25.00;52.70;;;;;;5077115;28;20028;-71
2023/10/23 06:13:52;;;;;;;7.25;2.10;;;25.00;52.60;;;;;;5095178;28;20115;-69
2023/10/23 06:16:18;;;;;;;4.57;1.92;;;25.00;52.50;;;;;;5077026;28;20057;-71
2023/10/23 06:18:44;;;;;;;3.80;1.95;;;25.10;55.40;;;;;;5103253;28;20073;-72
2023/10/23 06:21:10;;;;;;;4.15;1.30;;;25.00;54.40;;;;;;5107627;28;20036;-73
2023/10/23 06:23:40;;;;;;;3.47;1.30;;;24.90;54.20;;;;;;5106926;28;20019;-74
2023/10/23 06:26:07;;;;;;;2.50;1.55;;;25.10;55.00;;;;;;5085345;28;20047;-73
2023/10/23 06:28:34;;;;;;;4.53;1.85;;;25.20;54.80;;;;;;5107632;28;20098;-74
2023/10/23 06:31:07;;;;;;;4.70;1.92;;;25.10;54.70;;;;;;5107356;28;20035;-73
2023/10/23 06:33:33;;;;;;;4.88;1.90;;;25.10;54.50;;;;;;5087208;28;20506;-74
2023/10/23 06:35:59;;;;;;;6.13;1.92;;;25.10;54.50;;;;;;5105154;28;20050;-76
2023/10/23 06:38:25;;;;;;;5.00;2.10;;;25.20;54.40;;;;;;5109970;28;20032;-75
2023/10/23 06:40:51;;;;;;;5.35;1.70;;;25.20;54.40;;;;;;5087934;28;20059;-72
2023/10/23 06:43:18;;;;;;;2.97;1.48;;;25.10;54.40;;;;;;5083938;28;20039;-72
2023/10/23 06:45:44;;;;;;;2.80;1.45;;;25.20;54.40;;;;;;5103877;28;20554;-70
2023/10/23 06:48:10;;;;;;;1.00;0.90;;;25.20;54.40;;;;;;5095975;28;20036;-71
2023/10/23 06:50:38;;;;;;;3.15;0.93;;;25.30;54.40;;;;;;5102417;28;20077;-70
2023/10/23 06:53:03;;;;;;;2.53;0.80;;;25.30;54.40;;;;;;5084665;28;20032;-70
2023/10/23 06:55:29;;;;;;;2.92;1.15;;;25.30;54.40;;;;;;5100883;28;20103;-71
2023/10/23 06:57:57;;;;;;;3.70;1.27;;;25.30;54.40;;;;;;5083808;28;20110;-68
2023/10/23 07:00:23;;;;;;;1.15;0.90;;;25.20;54.40;;;;;;5092898;28;20403;-69
2023/10/23 07:02:49;;;;;;;2.50;1.02;;;25.30;54.40;;;;;;5047476;28;20044;-71
2023/10/23 07:05:16;;;;;;;1.15;1.02;;;25.30;54.50;;;;;;5103605;28;20035;-68
2023/10/23 07:07:42;;;;;;;3.05;1.27;;;25.30;54.60;;;;;;5101676;28;20158;-68
2023/10/23 07:10:09;;;;;;;3.38;1.23;;;25.40;54.60;;;;;;5111802;28;20031;-70
2023/10/23 07:12:35;;;;;;;3.97;1.50;;;25.40;54.60;;;;;;5113914;28;20043;-68
2023/10/23 07:15:02;;;;;;;3.67;1.95;;;25.40;54.70;;;;;;5104174;28;20078;-67
2023/10/23 07:17:29;;;;;;;9.55;2.42;;;25.30;54.70;;;;;;5094924;28;20047;-68
2023/10/23 07:19:55;;;;;;;6.85;2.45;;;25.40;54.70;;;;;;5109036;28;20020;-66
2023/10/23 07:22:21;;;;;;;7.82;3.78;;;25.30;54.80;;;;;;5096336;28;20023;-69
2023/10/23 07:24:47;;;;;;;9.27;2.83;;;25.40;54.80;;;;;;5105306;28;20071;-68
2023/10/23 07:27:16;;;;;;;8.75;3.08;;;25.30;54.90;;;;;;5099773;28;20137;-69
2023/10/23 07:29:43;;;;;;;6.90;2.65;;;25.40;54.90;;;;;;5109083;28;20046;-70
2023/10/23 07:32:09;;;;;;;9.70;2.50;;;25.30;55.00;;;;;;5096536;28;20181;-68
2023/10/23 07:34:35;;;;;;;4.68;2.50;;;25.30;55.00;;;;;;5100192;28;20493;-67
2023/10/23 07:37:03;;;;;;;10.15;3.17;;;25.30;54.80;;;;;;5068496;28;20044;-72
2023/10/23 07:39:29;;;;;;;7.90;2.35;;;25.40;54.90;;;;;;5070103;28;20538;-69
2023/10/23 07:41:55;;;;;;;9.35;2.67;;;25.40;54.90;;;;;;5069981;28;20071;-69
2023/10/23 07:44:21;;;;;;;6.07;3.20;;;25.40;55.00;;;;;;5057753;28;20041;-71
2023/10/23 07:46:47;;;;;;;14.07;3.17;;;25.30;55.00;;;;;;5044351;28;20052;-70
2023/10/23 07:49:13;;;;;;;11.73;3.60;;;25.40;55.00;;;;;;5055025;28;20032;-70
2023/10/23 07:51:39;;;;;;;5.28;2.90;;;25.50;54.90;;;;;;5069354;28;20036;-70
2023/10/23 07:54:05;;;;;;;3.20;2.28;;;25.40;55.00;;;;;;5056234;28;20119;-74
2023/10/23 07:56:31;;;;;;;4.38;2.13;;;25.50;55.00;;;;;;5051617;28;20044;-67
2023/10/23 07:58:58;;;;;;;7.95;2.75;;;25.50;55.00;;;;;;5067960;28;20040;-74
2023/10/23 08:01:24;;;;;;;4.03;2.08;;;25.60;55.00;;;;;;4987555;28;20053;-72
2023/10/23 08:03:50;;;;;;;2.97;2.05;;;25.40;55.10;;;;;;5004760;28;20042;-74
2023/10/23 08:06:16;;;;;;;8.52;1.90;;;25.40;55.10;;;;;;4990940;28;20062;-72
2023/10/23 08:08:44;;;;;;;4.78;1.85;;;25.50;55.20;;;;;;5025593;28;20088;-72
2023/10/23 08:11:12;;;;;;;4.32;2.67;;;25.50;55.30;;;;;;5049877;28;20074;-72
2023/10/23 08:13:39;;;;;;;7.40;2.05;;;25.50;55.30;;;;;;5050561;28;20048;-72
2023/10/23 08:16:05;;;;;;;3.78;1.55;;;25.40;55.30;;;;;;5050313;28;20080;-72
2023/10/23 08:18:34;;;;;;;3.40;1.60;;;25.40;55.20;;;;;;5047411;28;20040;-74
2023/10/23 08:21:00;;;;;;;2.70;1.80;;;25.40;55.20;;;;;;5019948;28;20071;-72
2023/10/23 08:23:26;;;;;;;2.08;1.48;;;25.60;55.20;;;;;;5049748;28;20029;-72
2023/10/23 08:25:52;;;;;;;3.03;1.30;;;25.50;55.20;;;;;;5048794;28;20523;-72
2023/10/23 08:28:18;;;;;;;7.35;1.98;;;25.50;55.20;;;;;;5038942;28;20034;-72
2023/10/23 08:30:44;;;;;;;1.50;1.33;;;25.60;55.10;;;;;;5015176;28;20442;-72
2023/10/23 08:33:10;;;;;;;4.57;1.40;;;25.40;55.10;;;;;;5081175;28;20093;-72
2023/10/23 08:35:36;;;;;;;5.43;1.63;;;25.40;55.10;;;;;;5093792;28;20031;-72
2023/10/23 08:38:02;;;;;;;3.25;1.85;;;25.50;55.00;;;;;;5101022;28;20038;-72
2023/10/23 08:40:29;;;;;;;4.80;1.85;;;25.40;55.00;;;;;;5101466;28;20047;-72
2023/10/23 08:42:55;;;;;;;2.67;1.73;;;25.40;55.00;;;;;;5092970;28;20076;-72
2023/10/23 08:45:21;;;;;;;4.68;1.88;;;25.30;55.00;;;;;;5111419;28;20027;-72
2023/10/23 08:47:47;;;;;;;4.28;1.52;;;25.30;55.10;;;;;;5087039;28;20455;-72
2023/10/23 08:50:13;;;;;;;5.70;1.50;;;25.40;55.20;;;;;;5059506;28;20041;-73
2023/10/23 08:52:58;;;;;;;3.60;1.73;;;25.40;55.20;;;;;;5047563;28;20055;-73
2023/10/23 08:55:29;;;;;;;3.80;1.42;;;25.40;55.20;;;;;;5063047;28;20072;-71
2023/10/23 08:57:59;;;;;;;1.48;1.20;;;25.30;55.30;;;;;;5052042;28;20039;-73
2023/10/23 09:00:25;;;;;;;2.33;1.50;;;25.30;55.30;;;;;;5048735;28;20040;-72
2023/10/23 09:02:54;;;;;;;3.03;1.50;;;25.30;55.40;;;;;;5048756;28;20060;-70
2023/10/23 09:05:20;;;;;;;2.35;1.20;;;25.30;55.40;;;;;;5064829;28;20041;-71
2023/10/23 09:07:46;;;;;;;3.55;1.30;;;25.40;55.50;;;;;;5051839;28;20048;-71
2023/10/23 09:10:12;;;;;;;2.28;0.98;;;25.40;55.60;;;;;;5062674;28;20044;-72
2023/10/23 09:12:41;;;;;;;1.30;1.00;;;25.30;55.60;;;;;;5057150;28;20047;-71
2023/10/23 09:15:17;;;;;;;0.88;0.88;;;25.40;55.60;;;;;;5032320;28;20037;-71
2023/10/23 09:17:44;;;;;;;3.15;1.00;;;25.30;55.60;;;;;;5049327;28;20035;-71
2023/10/23 09:20:28;;;;;;;2.65;0.98;;;25.50;55.60;;;;;;5051673;28;20037;-71
2023/10/23 09:22:55;;;;;;;2.40;1.27;;;25.40;55.60;;;;;;5096995;28;20375;-71
2023/10/23 09:25:25;;;;;;;1.42;1.00;;;25.30;55.50;;;;;;5111690;28;20454;-71
2023/10/23 09:27:52;;;;;;;1.20;0.95;;;25.30;55.40;;;;;;5097709;28;20460;-71
2023/10/23 09:30:22;;;;;;;2.25;1.40;;;25.30;55.30;;;;;;5058710;28;20064;-71
2023/10/23 09:32:53;;;;;;;1.50;0.93;;;25.30;55.20;;;;;;5076286;28;20122;-71
2023/10/23 09:35:20;;;;;;;2.72;0.85;;;25.30;55.30;;;;;;5071725;28;20458;-72
2023/10/23 09:37:46;;;;;;;4.85;0.90;;;25.30;55.30;;;;;;5090975;28;20043;-71
2023/10/23 09:40:13;;;;;;;3.20;0.98;;;25.30;55.10;;;;;;5091427;28;20036;-71
2023/10/23 09:42:40;;;;;;;2.58;0.88;;;25.20;55.30;;;;;;5097415;28;20471;-72
2023/10/23 09:45:07;;;;;;;2.90;0.98;;;25.20;55.10;;;;;;5095399;28;20092;-71
2023/10/23 09:47:34;;;;;;;2.30;1.63;;;25.20;55.10;;;;;;5092801;28;20123;-72
2023/10/23 09:50:01;;;;;;;2.05;1.10;;;25.30;55.10;;;;;;5111109;28;20034;-71
2023/10/23 09:52:27;;;;;;;6.15;1.27;;;25.20;55.10;;;;;;5111194;28;20502;-72
2023/10/23 09:55:05;;;;;;;2.88;0.95;;;25.30;55.20;;;;;;5094920;28;20051;-72
2023/10/23 09:57:36;;;;;;;2.47;1.20;;;25.20;55.20;;;;;;5065333;28;20024;-71
2023/10/23 10:00:14;;;;;;;1.90;1.48;;;25.20;55.20;;;;;;5091608;28;20043;-72
2023/10/23 10:02:45;;;;;;;3.60;1.77;;;25.20;55.10;;;;;;5090843;28;20540;-72
2023/10/23 10:05:18;;;;;;;3.42;1.48;;;25.20;55.10;;;;;;5091202;28;20490;-72
2023/10/23 10:08:02;;;;;;;1.77;1.40;;;25.20;55.00;;;;;;5090929;28;20063;-71
2023/10/23 10:10:30;;;;;;;7.45;1.38;;;25.30;53.40;;;;;;5072790;28;20079;-70
2023/10/23 10:12:56;;;;;;;4.28;2.00;;;25.20;54.90;;;;;;5090902;28;20097;-73
2023/10/23 10:15:24;;;;;;;3.17;1.70;;;25.20;54.90;;;;;;5103694;28;20084;-69
2023/10/23 10:17:51;;;;;;;8.88;1.98;;;25.30;54.80;;;;;;5092822;28;20372;-70
2023/10/23 10:20:21;;;;;;;27.13;3.60;;;25.50;59.20;;;;;;5104362;28;20044;-68
2023/10/23 10:23:13;;;;;;;4.18;1.90;;;26.10;59.70;;;;;;5084301;28;20154;-70
2023/10/23 10:25:41;;;;;;;4.55;1.48;;;26.40;55.30;;;;;;5103719;28;20082;-71
2023/10/23 10:28:08;;;;;;;3.35;1.50;;;26.40;52.50;;;;;;5099495;28;20031;-71
2023/10/23 10:30:37;;;;;;;2.10;1.55;;;26.30;50.90;;;;;;5097382;28;20024;-70
2023/10/23 10:33:10;;;;;;;6.55;1.25;;;26.40;49.10;;;;;;5106752;28;20040;-70
2023/10/23 10:35:36;;;;;;;2.90;1.52;;;26.20;48.10;;;;;;5090921;28;20039;-72
2023/10/23 10:38:03;;;;;;;3.88;1.10;;;26.30;47.80;;;;;;5071136;28;20428;-71
2023/10/23 10:41:03;;;;;;;1.80;1.48;;;26.30;47.30;;;;;;5073300;28;20115;-71
2023/10/23 10:43:32;;;;;;;1.42;1.27;;;26.20;46.50;;;;;;5085728;28;20038;-70
2023/10/23 10:46:23;;;;;;;2.22;1.20;;;26.30;46.10;;;;;;5091909;28;20036;-71
2023/10/23 10:48:51;;;;;;;0.98;0.98;;;26.20;45.50;;;;;;4990897;28;20112;-70
2023/10/23 10:51:22;;;;;;;3.08;1.77;;;26.00;45.00;;;;;;4998826;28;20187;-70
2023/10/23 10:53:55;;;;;;;0.77;0.63;;;26.40;44.70;;;;;;5003710;28;20486;-71
2023/10/23 10:56:24;;;;;;;1.52;1.00;;;26.40;46.00;;;;;;5003663;28;21562;-70
2023/10/23 10:58:50;;;;;;;2.47;1.00;;;26.50;47.20;;;;;;4994140;28;20038;-70
2023/10/23 11:01:21;;;;;;;2.67;1.65;;;26.40;44.30;;;;;;4998286;28;20044;-69
2023/10/23 11:03:47;;;;;;;3.42;0.93;;;26.30;43.70;;;;;;5005267;28;20038;-70
2023/10/23 11:06:14;;;;;;;2.08;1.00;;;26.20;42.60;;;;;;5006221;28;20054;-71
2023/10/23 11:08:40;;;;;;;4.07;1.35;;;26.30;42.90;;;;;;5011481;28;20434;-70
2023/10/23 11:11:06;;;;;;;3.67;1.30;;;26.30;42.90;;;;;;5005750;28;20042;-71
2023/10/23 11:13:35;;;;;;;2.60;1.05;;;26.40;44.10;;;;;;5011374;28;20054;-71
2023/10/23 11:16:01;;;;;;;3.05;1.02;;;26.50;43.40;;;;;;4996204;28;20041;-71
2023/10/23 11:18:28;;;;;;;3.38;1.33;;;26.50;42.70;;;;;;5007988;28;20038;-71
2023/10/23 11:20:59;;;;;;;2.22;1.40;;;26.50;46.10;;;;;;5009532;28;20584;-70
2023/10/23 11:23:28;;;;;;;1.65;1.25;;;26.50;49.10;;;;;;5008241;28;20120;-72
2023/10/23 11:25:54;;;;;;;4.72;2.08;;;26.40;49.80;;;;;;5055805;28;20055;-71
2023/10/23 11:28:24;;;;;;;1.83;1.13;;;26.50;48.70;;;;;;5093458;28;20031;-71
2023/10/23 11:31:00;;;;;;;1.95;1.67;;;26.50;50.40;;;;;;5099370;28;20032;-71
2023/10/23 11:33:26;;;;;;;2.25;1.23;;;26.60;52.30;;;;;;5070601;28;20036;-70
2023/10/23 11:35:52;;;;;;;2.13;1.02;;;26.70;52.80;;;;;;5102920;28;20028;-70
2023/10/23 11:38:20;;;;;;;6.63;1.27;;;26.60;53.00;;;;;;5101480;28;20023;-70
2023/10/23 11:40:47;;;;;;;1.27;1.08;;;26.70;49.50;;;;;;5111909;28;20036;-70
2023/10/23 11:43:15;;;;;;;3.60;1.33;;;26.70;46.10;;;;;;5083896;28;20379;-70
2023/10/23 11:45:42;;;;;;;2.35;1.65;;;26.70;48.10;;;;;;5079775;28;20040;-69
2023/10/23 11:48:12;;;;;;;4.72;1.38;;;26.70;50.50;;;;;;5110328;28;20096;-70
2023/10/23 11:50:40;;;;;;;2.38;1.90;;;26.70;51.40;;;;;;5079117;28;20403;-69
2023/10/23 11:53:06;;;;;;;4.80;1.05;;;26.90;53.40;;;;;;5075844;28;20048;-70
2023/10/23 11:55:33;;;;;;;4.80;1.40;;;26.90;52.50;;;;;;5105064;28;20114;-70
2023/10/23 11:58:01;;;;;;;3.83;1.60;;;26.80;53.40;;;;;;5094127;28;20042;-69
2023/10/23 12:00:32;;;;;;;3.38;1.77;;;26.80;54.20;;;;;;5075673;28;20570;-72
2023/10/23 12:02:58;;;;;;;3.20;1.50;;;26.90;54.50;;;;;;5093049;28;20035;-69
2023/10/23 12:05:24;;;;;;;2.63;1.55;;;27.00;53.10;;;;;;5093781;28;20044;-69
2023/10/23 12:07:54;;;;;;;4.70;1.50;;;27.00;46.70;;;;;;5108180;28;20039;-72
2023/10/23 12:10:26;;;;;;;3.33;1.30;;;26.80;44.80;;;;;;5108323;28;20024;-71
2023/10/23 12:12:54;;;;;;;8.95;1.92;;;26.90;43.50;;;;;;5092798;28;20093;-72
2023/10/23 12:15:23;;;;;;;2.63;1.42;;;26.80;43.00;;;;;;5094569;28;20019;-71
2023/10/23 12:17:50;;;;;;;2.92;1.70;;;26.60;42.80;;;;;;5106550;28;20758;-73
2023/10/23 12:20:16;;;;;;;3.05;1.60;;;26.70;42.60;;;;;;5111400;28;20031;-72
2023/10/23 12:22:43;;;;;;;2.15;1.48;;;26.50;42.70;;;;;;5100143;28;20479;-70
2023/10/23 12:25:10;;;;;;;2.00;1.60;;;26.50;43.60;;;;;;5111045;28;20051;-70
2023/10/23 12:27:37;;;;;;;2.50;1.20;;;26.60;43.80;;;;;;5112616;28;20096;-70
2023/10/23 12:30:05;;;;;;;2.25;1.30;;;26.50;43.80;;;;;;5097881;28;20382;-70
2023/10/23 12:32:32;;;;;;;1.80;1.30;;;26.40;43.70;;;;;;5106792;28;20375;-70
2023/10/23 12:34:59;;;;;;;3.47;1.50;;;26.50;43.60;;;;;;5111046;28;20507;-71
2023/10/23 12:37:26;;;;;;;1.85;1.35;;;26.30;43.50;;;;;;5110656;28;20593;-70
2023/10/23 12:39:54;;;;;;;4.22;1.52;;;26.50;43.50;;;;;;5110883;28;20034;-70
2023/10/23 12:42:21;;;;;;;2.00;1.10;;;26.30;43.60;;;;;;5104066;28;20051;-70
2023/10/23 12:44:48;;;;;;;3.47;1.05;;;26.40;43.80;;;;;;5096975;28;20040;-70
2023/10/23 12:47:14;;;;;;;2.28;1.33;;;26.40;44.00;;;;;;5093032;28;20028;-69